sensor_id;sensor_type;location;lat;lon;timestamp;pressure;altitude;pressure_sealevel;temperature;humidity
48200;BME280;33990;44.602;10.976;2023-02-15T00:01:37;102564.94;;;19.99;36.20
48200;BME280;33990;44.602;10.976;2023-02-15T00:04:06;102559.69;;;19.98;36.28
48200;BME280;33990;44.602;10.976;2023-02-15T00:06:34;102554.31;;;19.98;36.25
48200;BME280;33990;44.602;10.976;2023-02-15T00:09:02;102553.34;;;19.99;36.28
48200;BME280;33990;44.602;10.976;2023-02-15T00:11:30;102548.06;;;19.97;36.26
48200;BME280;33990;44.602;10.976;2023-02-15T00:14:09;102533.72;;;19.97;36.18
48200;BME280;33990;44.602;10.976;2023-02-15T00:16:38;102539.09;;;19.97;36.48
48200;BME280;33990;44.602;10.976;2023-02-15T00:19:06;102537.38;;;19.96;36.12
48200;BME280;33990;44.602;10.976;2023-02-15T00:21:35;102537.38;;;19.96;36.28
48200;BME280;33990;44.602;10.976;2023-02-15T00:24:04;102538.34;;;19.95;36.03
48200;BME280;33990;44.602;10.976;2023-02-15T00:26:32;102535.66;;;19.95;36.22
48200;BME280;33990;44.602;10.976;2023-02-15T00:29:00;102538.34;;;19.95;36.15
48200;BME280;33990;44.602;10.976;2023-02-15T00:31:29;102536.63;;;19.94;36.23
48200;BME280;33990;44.602;10.976;2023-02-15T00:34:06;102534.88;;;19.93;36.14
48200;BME280;33990;44.602;10.976;2023-02-15T00:36:35;102539.31;;;19.94;36.24
48200;BME280;33990;44.602;10.976;2023-02-15T00:39:02;102542.00;;;19.94;36.23
48200;BME280;33990;44.602;10.976;2023-02-15T00:41:32;102542.09;;;19.92;35.96
48200;BME280;33990;44.602;10.976;2023-02-15T00:44:00;102533.16;;;19.92;36.14
48200;BME280;33990;44.602;10.976;2023-02-15T00:46:29;102537.56;;;19.93;36.19
48200;BME280;33990;44.602;10.976;2023-02-15T00:48:56;102529.59;;;19.91;36.00
48200;BME280;33990;44.602;10.976;2023-02-15T00:51:24;102532.28;;;19.91;36.13
48200;BME280;33990;44.602;10.976;2023-02-15T00:53:52;102527.88;;;19.90;36.14
48200;BME280;33990;44.602;10.976;2023-02-15T00:56:20;102526.16;;;19.89;35.99
48200;BME280;33990;44.602;10.976;2023-02-15T00:58:47;102524.34;;;19.90;36.11
48200;BME280;33990;44.602;10.976;2023-02-15T01:01:17;102526.16;;;19.89;36.16
48200;BME280;33990;44.602;10.976;2023-02-15T01:03:45;102527.03;;;19.90;36.07
48200;BME280;33990;44.602;10.976;2023-02-15T01:06:15;102531.53;;;19.89;35.97
48200;BME280;33990;44.602;10.976;2023-02-15T01:08:43;102522.59;;;19.89;36.14
48200;BME280;33990;44.602;10.976;2023-02-15T01:11:14;102521.72;;;19.88;36.07
48200;BME280;33990;44.602;10.976;2023-02-15T01:13:42;102526.25;;;19.88;36.19
48200;BME280;33990;44.602;10.976;2023-02-15T01:16:09;102522.69;;;19.87;36.29
48200;BME280;33990;44.602;10.976;2023-02-15T01:18:36;102523.56;;;19.88;36.04
48200;BME280;33990;44.602;10.976;2023-02-15T01:21:18;102522.69;;;19.87;35.92
48200;BME280;33990;44.602;10.976;2023-02-15T01:23:46;102526.34;;;19.86;36.18
48200;BME280;33990;44.602;10.976;2023-02-15T01:26:14;102524.53;;;19.87;36.15
48200;BME280;33990;44.602;10.976;2023-02-15T01:28:44;102529.03;;;19.86;36.18
48200;BME280;33990;44.602;10.976;2023-02-15T01:31:16;102528.16;;;19.86;36.17
48200;BME280;33990;44.602;10.976;2023-02-15T01:33:45;102516.56;;;19.85;36.08
48200;BME280;33990;44.602;10.976;2023-02-15T01:36:13;102520.09;;;19.86;36.21
48200;BME280;33990;44.602;10.976;2023-02-15T01:38:41;102524.63;;;19.85;36.16
48200;BME280;33990;44.602;10.976;2023-02-15T01:41:09;102521.03;;;19.85;36.33
48200;BME280;33990;44.602;10.976;2023-02-15T01:43:59;102519.25;;;19.85;35.97
48200;BME280;33990;44.602;10.976;2023-02-15T01:46:49;102518.34;;;19.85;36.31
48200;BME280;33990;44.602;10.976;2023-02-15T01:49:20;102507.72;;;19.83;36.27
48200;BME280;33990;44.602;10.976;2023-02-15T01:51:51;102511.25;;;19.84;36.26
48200;BME280;33990;44.602;10.976;2023-02-15T01:54:29;102505.88;;;19.84;36.10
48200;BME280;33990;44.602;10.976;2023-02-15T01:57:01;102515.78;;;19.83;36.11
48200;BME280;33990;44.602;10.976;2023-02-15T01:59:31;102511.25;;;19.84;36.21
48200;BME280;33990;44.602;10.976;2023-02-15T02:02:01;102504.16;;;19.83;36.35
48200;BME280;33990;44.602;10.976;2023-02-15T02:04:40;102501.59;;;19.81;36.11
48200;BME280;33990;44.602;10.976;2023-02-15T02:07:09;102496.22;;;19.81;36.18
48200;BME280;33990;44.602;10.976;2023-02-15T02:09:37;102502.44;;;19.82;36.18
48200;BME280;33990;44.602;10.976;2023-02-15T02:12:06;102499.75;;;19.82;36.05
48200;BME280;33990;44.602;10.976;2023-02-15T02:14:34;102496.22;;;19.81;36.29
48200;BME280;33990;44.602;10.976;2023-02-15T02:17:22;102494.38;;;19.82;36.10
48200;BME280;33990;44.602;10.976;2023-02-15T02:28:14;102484.69;;;19.79;36.37
48200;BME280;33990;44.602;10.976;2023-02-15T02:33:41;102485.53;;;19.80;36.40
48200;BME280;33990;44.602;10.976;2023-02-15T02:39:14;102479.41;;;19.78;36.46
48200;BME280;33990;44.602;10.976;2023-02-15T02:41:51;102480.34;;;19.76;36.48
48200;BME280;33990;44.602;10.976;2023-02-15T02:44:26;102487.47;;;19.78;36.52
48200;BME280;33990;44.602;10.976;2023-02-15T02:46:59;102477.66;;;19.76;36.37
48200;BME280;33990;44.602;10.976;2023-02-15T02:49:37;102476.78;;;19.76;36.56
48200;BME280;33990;44.602;10.976;2023-02-15T02:52:41;102478.63;;;19.75;36.57
48200;BME280;33990;44.602;10.976;2023-02-15T02:57:54;102476.03;;;19.74;36.33
48200;BME280;33990;44.602;10.976;2023-02-15T03:00:25;102488.50;;;19.75;36.33
48200;BME280;33990;44.602;10.976;2023-02-15T03:03:01;102472.50;;;19.73;36.22
48200;BME280;33990;44.602;10.976;2023-02-15T03:05:34;102478.72;;;19.74;36.49
48200;BME280;33990;44.602;10.976;2023-02-15T03:08:06;102474.31;;;19.73;36.55
48200;BME280;33990;44.602;10.976;2023-02-15T03:10:38;102477.88;;;19.73;36.41
48200;BME280;33990;44.602;10.976;2023-02-15T03:13:07;102477.88;;;19.73;36.48
48200;BME280;33990;44.602;10.976;2023-02-15T03:15:38;102466.25;;;19.73;36.34
48200;BME280;33990;44.602;10.976;2023-02-15T03:18:30;102462.69;;;19.72;36.36
48200;BME280;33990;44.602;10.976;2023-02-15T03:21:02;102471.63;;;19.73;36.51
48200;BME280;33990;44.602;10.976;2023-02-15T03:23:32;102465.38;;;19.72;36.59
48200;BME280;33990;44.602;10.976;2023-02-15T03:26:05;102470.75;;;19.72;36.58
48200;BME280;33990;44.602;10.976;2023-02-15T03:28:42;102465.47;;;19.71;36.40
48200;BME280;33990;44.602;10.976;2023-02-15T03:31:12;102470.00;;;19.70;36.41
48200;BME280;33990;44.602;10.976;2023-02-15T03:33:51;102468.16;;;19.71;36.45
48200;BME280;33990;44.602;10.976;2023-02-15T03:36:40;102469.13;;;19.70;36.48
48200;BME280;33990;44.602;10.976;2023-02-15T03:39:45;102478.06;;;19.70;36.48
48200;BME280;33990;44.602;10.976;2023-02-15T03:44:58;102482.56;;;19.70;36.60
48200;BME280;33990;44.602;10.976;2023-02-15T03:47:36;102480.84;;;19.69;36.49
48200;BME280;33990;44.602;10.976;2023-02-15T03:50:06;102478.16;;;19.69;36.48
48200;BME280;33990;44.602;10.976;2023-02-15T03:52:55;102478.16;;;19.69;36.63
48200;BME280;33990;44.602;10.976;2023-02-15T03:55:24;102479.94;;;19.68;36.46
48200;BME280;33990;44.602;10.976;2023-02-15T03:57:52;102473.72;;;19.68;36.71
48200;BME280;33990;44.602;10.976;2023-02-15T04:00:44;102478.16;;;19.69;36.75
48200;BME280;33990;44.602;10.976;2023-02-15T04:03:45;102472.84;;;19.67;36.60
48200;BME280;33990;44.602;10.976;2023-02-15T04:06:16;102474.69;;;19.67;36.63
48200;BME280;33990;44.602;10.976;2023-02-15T04:08:43;102475.66;;;19.66;36.70
48200;BME280;33990;44.602;10.976;2023-02-15T04:11:30;102480.16;;;19.65;36.74
48200;BME280;33990;44.602;10.976;2023-02-15T04:13:57;102475.66;;;19.66;36.74
48200;BME280;33990;44.602;10.976;2023-02-15T04:16:25;102477.47;;;19.65;36.78
48200;BME280;33990;44.602;10.976;2023-02-15T04:18:52;102480.06;;;19.67;36.90
48200;BME280;33990;44.602;10.976;2023-02-15T04:21:38;102474.78;;;19.65;36.91
48200;BME280;33990;44.602;10.976;2023-02-15T04:24:24;102474.78;;;19.65;36.67
48200;BME280;33990;44.602;10.976;2023-02-15T04:27:09;102468.56;;;19.65;36.84
48200;BME280;33990;44.602;10.976;2023-02-15T04:29:37;102467.66;;;19.64;36.82
48200;BME280;33990;44.602;10.976;2023-02-15T04:32:04;102478.41;;;19.64;36.73
48200;BME280;33990;44.602;10.976;2023-02-15T04:34:31;102464.22;;;19.62;36.92
48200;BME280;33990;44.602;10.976;2023-02-15T04:36:58;102470.44;;;19.63;36.77
48200;BME280;33990;44.602;10.976;2023-02-15T04:39:26;102464.22;;;19.62;36.73
48200;BME280;33990;44.602;10.976;2023-02-15T04:41:53;102471.31;;;19.63;36.89
48200;BME280;33990;44.602;10.976;2023-02-15T04:44:20;102462.41;;;19.63;36.77
48200;BME280;33990;44.602;10.976;2023-02-15T04:46:48;102456.16;;;19.62;36.98
48200;BME280;33990;44.602;10.976;2023-02-15T04:49:15;102465.09;;;19.63;36.90
48200;BME280;33990;44.602;10.976;2023-02-15T04:51:43;102467.78;;;19.63;37.03
48200;BME280;33990;44.602;10.976;2023-02-15T04:54:10;102467.78;;;19.63;37.08
48200;BME280;33990;44.602;10.976;2023-02-15T04:56:37;102465.94;;;19.63;36.99
48200;BME280;33990;44.602;10.976;2023-02-15T04:59:06;102471.31;;;19.63;36.97
48200;BME280;33990;44.602;10.976;2023-02-15T05:01:33;102470.44;;;19.63;37.05
48200;BME280;33990;44.602;10.976;2023-02-15T05:04:00;102468.75;;;19.62;37.10
48200;BME280;33990;44.602;10.976;2023-02-15T05:06:28;102468.63;;;19.63;37.11
48200;BME280;33990;44.602;10.976;2023-02-15T05:08:56;102464.22;;;19.62;37.06
48200;BME280;33990;44.602;10.976;2023-02-15T05:11:26;102470.44;;;19.63;37.15
48200;BME280;33990;44.602;10.976;2023-02-15T05:13:53;102470.56;;;19.61;37.22
48200;BME280;33990;44.602;10.976;2023-02-15T05:16:21;102460.72;;;19.60;37.20
48200;BME280;33990;44.602;10.976;2023-02-15T05:18:48;102466.97;;;19.61;37.00
48200;BME280;33990;44.602;10.976;2023-02-15T05:21:16;102473.28;;;19.60;37.14
48200;BME280;33990;44.602;10.976;2023-02-15T05:23:43;102466.09;;;19.60;37.28
48200;BME280;33990;44.602;10.976;2023-02-15T05:26:17;102472.34;;;19.61;37.08
48200;BME280;33990;44.602;10.976;2023-02-15T05:29:04;102469.75;;;19.59;37.12
48200;BME280;33990;44.602;10.976;2023-02-15T05:31:32;102463.50;;;19.59;37.18
48200;BME280;33990;44.602;10.976;2023-02-15T05:34:01;102461.78;;;19.58;37.28
48200;BME280;33990;44.602;10.976;2023-02-15T05:36:28;102460.03;;;19.57;37.24
48200;BME280;33990;44.602;10.976;2023-02-15T05:38:55;102466.38;;;19.56;37.15
48200;BME280;33990;44.602;10.976;2023-02-15T05:41:23;102469.06;;;19.56;37.10
48200;BME280;33990;44.602;10.976;2023-02-15T05:43:51;102470.78;;;19.57;37.20
48200;BME280;33990;44.602;10.976;2023-02-15T05:46:18;102471.75;;;19.56;37.13
48200;BME280;33990;44.602;10.976;2023-02-15T05:48:45;102478.94;;;19.55;37.13
48200;BME280;33990;44.602;10.976;2023-02-15T05:51:13;102470.88;;;19.55;37.04
48200;BME280;33990;44.602;10.976;2023-02-15T05:53:41;102469.16;;;19.54;37.17
48200;BME280;33990;44.602;10.976;2023-02-15T05:56:10;102466.47;;;19.54;37.10
48200;BME280;33990;44.602;10.976;2023-02-15T05:58:39;102464.75;;;19.53;37.09
48200;BME280;33990;44.602;10.976;2023-02-15T06:01:14;102463.88;;;19.52;37.04
48200;BME280;33990;44.602;10.976;2023-02-15T06:03:42;102471.06;;;19.52;36.89
48200;BME280;33990;44.602;10.976;2023-02-15T06:06:10;102472.03;;;19.51;36.99
48200;BME280;33990;44.602;10.976;2023-02-15T06:08:38;102476.44;;;19.52;37.04
48200;BME280;33990;44.602;10.976;2023-02-15T06:11:06;102479.13;;;19.52;36.83
48200;BME280;33990;44.602;10.976;2023-02-15T06:13:34;102485.34;;;19.52;36.86
48200;BME280;33990;44.602;10.976;2023-02-15T06:16:05;102486.31;;;19.51;36.87
48200;BME280;33990;44.602;10.976;2023-02-15T06:18:33;102489.88;;;19.52;36.87
48200;BME280;33990;44.602;10.976;2023-02-15T06:21:00;102486.31;;;19.51;36.87
48200;BME280;33990;44.602;10.976;2023-02-15T06:23:28;102500.63;;;19.52;36.93
48200;BME280;33990;44.602;10.976;2023-02-15T06:25:55;102486.31;;;19.51;36.73
48200;BME280;33990;44.602;10.976;2023-02-15T06:28:22;102489.13;;;19.50;36.88
48200;BME280;33990;44.602;10.976;2023-02-15T06:30:52;102490.06;;;19.49;36.88
48200;BME280;33990;44.602;10.976;2023-02-15T06:33:19;102485.56;;;19.49;37.05
48200;BME280;33990;44.602;10.976;2023-02-15T06:35:47;102483.75;;;19.50;36.82
48200;BME280;33990;44.602;10.976;2023-02-15T06:38:14;102490.94;;;19.49;37.09
48200;BME280;33990;44.602;10.976;2023-02-15T06:40:41;102490.06;;;19.49;36.94
48200;BME280;33990;44.602;10.976;2023-02-15T06:43:08;102495.44;;;19.49;37.05
48200;BME280;33990;44.602;10.976;2023-02-15T06:45:36;102490.06;;;19.49;37.04
48200;BME280;33990;44.602;10.976;2023-02-15T06:48:03;102496.31;;;19.49;37.09
48200;BME280;33990;44.602;10.976;2023-02-15T06:50:34;102488.25;;;19.49;37.16
48200;BME280;33990;44.602;10.976;2023-02-15T06:53:02;102497.19;;;19.50;37.08
48200;BME280;33990;44.602;10.976;2023-02-15T06:55:29;102499.84;;;19.50;36.73
48200;BME280;33990;44.602;10.976;2023-02-15T06:57:57;102502.53;;;19.50;36.83
48200;BME280;33990;44.602;10.976;2023-02-15T07:00:24;102503.41;;;19.50;36.78
48200;BME280;33990;44.602;10.976;2023-02-15T07:02:57;102507.91;;;19.50;36.90
48200;BME280;33990;44.602;10.976;2023-02-15T07:05:27;102505.22;;;19.50;37.18
48200;BME280;33990;44.602;10.976;2023-02-15T07:07:59;102504.44;;;19.48;37.12
48200;BME280;33990;44.602;10.976;2023-02-15T07:10:27;102499.06;;;19.48;37.08
48200;BME280;33990;44.602;10.976;2023-02-15T07:12:54;102491.97;;;19.47;37.06
48200;BME280;33990;44.602;10.976;2023-02-15T07:15:22;102488.31;;;19.48;36.63
48200;BME280;33990;44.602;10.976;2023-02-15T07:17:50;102488.31;;;19.48;37.05
48200;BME280;33990;44.602;10.976;2023-02-15T07:20:21;102491.97;;;19.47;37.02
48200;BME280;33990;44.602;10.976;2023-02-15T07:22:49;102493.81;;;19.46;37.18
48200;BME280;33990;44.602;10.976;2023-02-15T07:25:17;102492.09;;;19.45;36.94
48200;BME280;33990;44.602;10.976;2023-02-15T07:27:45;102500.13;;;19.45;36.97
48200;BME280;33990;44.602;10.976;2023-02-15T07:30:15;102495.69;;;19.44;37.09
48200;BME280;33990;44.602;10.976;2023-02-15T07:32:43;102493.91;;;19.45;37.12
48200;BME280;33990;44.602;10.976;2023-02-15T07:35:32;102498.31;;;19.46;36.98
48200;BME280;33990;44.602;10.976;2023-02-15T07:38:00;102500.03;;;19.47;37.21
48200;BME280;33990;44.602;10.976;2023-02-15T07:40:28;102499.06;;;19.48;37.46
48200;BME280;33990;44.602;10.976;2023-02-15T07:42:57;102500.81;;;19.49;37.80
48200;BME280;33990;44.602;10.976;2023-02-15T07:45:26;102508.88;;;19.49;37.31
48200;BME280;33990;44.602;10.976;2023-02-15T07:47:54;102502.72;;;19.47;37.07
48200;BME280;33990;44.602;10.976;2023-02-15T07:50:21;102506.28;;;19.47;37.56
48200;BME280;33990;44.602;10.976;2023-02-15T07:52:49;102504.44;;;19.48;37.49
48200;BME280;33990;44.602;10.976;2023-02-15T07:55:30;102497.34;;;19.47;36.98
48200;BME280;33990;44.602;10.976;2023-02-15T07:57:59;102503.69;;;19.46;37.18
48200;BME280;33990;44.602;10.976;2023-02-15T08:00:27;102507.22;;;19.46;37.37
48200;BME280;33990;44.602;10.976;2023-02-15T08:02:55;102507.13;;;19.48;37.91
48200;BME280;33990;44.602;10.976;2023-02-15T08:05:43;102501.69;;;19.49;36.75
48200;BME280;33990;44.602;10.976;2023-02-15T08:08:11;102501.75;;;19.48;35.53
48200;BME280;33990;44.602;10.976;2023-02-15T08:11:37;102503.69;;;19.46;35.89
48200;BME280;33990;44.602;10.976;2023-02-15T08:14:10;102504.81;;;19.42;35.20
48200;BME280;33990;44.602;10.976;2023-02-15T08:19:24;102500.78;;;19.35;35.09
48200;BME280;33990;44.602;10.976;2023-02-15T08:21:56;102498.25;;;19.32;34.63
48200;BME280;33990;44.602;10.976;2023-02-15T08:24:28;102500.09;;;19.31;34.71
48200;BME280;33990;44.602;10.976;2023-02-15T08:26:57;102497.41;;;19.31;34.67
48200;BME280;33990;44.602;10.976;2023-02-15T08:29:27;102493.84;;;19.31;34.61
48200;BME280;33990;44.602;10.976;2023-02-15T08:31:57;102500.19;;;19.30;34.51
48200;BME280;33990;44.602;10.976;2023-02-15T08:34:32;102497.50;;;19.30;34.27
48200;BME280;33990;44.602;10.976;2023-02-15T08:36:59;102493.84;;;19.31;34.44
48200;BME280;33990;44.602;10.976;2023-02-15T08:39:27;102502.88;;;19.30;34.48
48200;BME280;33990;44.602;10.976;2023-02-15T08:41:55;102499.13;;;19.32;34.92
48200;BME280;33990;44.602;10.976;2023-02-15T08:44:23;102503.47;;;19.35;34.82
48200;BME280;33990;44.602;10.976;2023-02-15T08:46:50;102501.56;;;19.37;34.39
48200;BME280;33990;44.602;10.976;2023-02-15T08:49:21;102507.59;;;19.40;34.68
48200;BME280;33990;44.602;10.976;2023-02-15T08:51:49;102501.28;;;19.41;34.24
48200;BME280;33990;44.602;10.976;2023-02-15T08:54:19;102498.50;;;19.43;34.26
48200;BME280;33990;44.602;10.976;2023-02-15T08:56:47;102498.38;;;19.44;34.30
48200;BME280;33990;44.602;10.976;2023-02-15T08:59:20;102502.72;;;19.47;34.19
48200;BME280;33990;44.602;10.976;2023-02-15T09:01:49;102499.94;;;19.48;34.19
48200;BME280;33990;44.602;10.976;2023-02-15T09:04:17;102502.53;;;19.50;34.41
48200;BME280;33990;44.602;10.976;2023-02-15T09:06:46;102502.44;;;19.51;34.32
48200;BME280;33990;44.602;10.976;2023-02-15T09:09:16;102505.06;;;19.53;34.49
48200;BME280;33990;44.602;10.976;2023-02-15T09:11:46;102503.22;;;19.54;34.13
48200;BME280;33990;44.602;10.976;2023-02-15T09:14:17;102495.06;;;19.55;34.17
48200;BME280;33990;44.602;10.976;2023-02-15T09:16:48;102504.78;;;19.58;35.13
48200;BME280;33990;44.602;10.976;2023-02-15T09:19:20;102500.25;;;19.58;35.39
48200;BME280;33990;44.602;10.976;2023-02-15T09:21:47;102501.91;;;19.61;35.31
48200;BME280;33990;44.602;10.976;2023-02-15T09:24:16;102504.53;;;19.62;34.23
48200;BME280;33990;44.602;10.976;2023-02-15T09:26:47;102501.84;;;19.62;34.32
48200;BME280;33990;44.602;10.976;2023-02-15T09:29:15;102498.28;;;19.62;33.63
48200;BME280;33990;44.602;10.976;2023-02-15T09:31:48;102502.81;;;19.61;33.51
48200;BME280;33990;44.602;10.976;2023-02-15T09:34:18;102506.34;;;19.62;33.71
48200;BME280;33990;44.602;10.976;2023-02-15T09:36:46;102508.06;;;19.63;34.07
48200;BME280;33990;44.602;10.976;2023-02-15T09:39:24;102509.78;;;19.64;35.08
48200;BME280;33990;44.602;10.976;2023-02-15T09:44:44;102514.97;;;19.67;35.36
48200;BME280;33990;44.602;10.976;2023-02-15T09:58:00;102501.09;;;19.74;35.82
48200;BME280;33990;44.602;10.976;2023-02-15T10:08:56;102506.28;;;19.78;35.84
48200;BME280;33990;44.602;10.976;2023-02-15T10:12:02;102504.44;;;19.78;36.24
48200;BME280;33990;44.602;10.976;2023-02-15T10:14:53;102503.66;;;19.76;35.42
48200;BME280;33990;44.602;10.976;2023-02-15T10:25:51;102502.22;;;19.70;35.42
48200;BME280;33990;44.602;10.976;2023-02-15T10:28:53;102505.59;;;19.74;35.83
48200;BME280;33990;44.602;10.976;2023-02-15T10:39:31;102483.91;;;19.77;35.81
48200;BME280;33990;44.602;10.976;2023-02-15T10:48:55;102467.69;;;19.79;35.99
48200;BME280;33990;44.602;10.976;2023-02-15T10:54:16;102457.69;;;19.81;36.46
48200;BME280;33990;44.602;10.976;2023-02-15T11:00:22;102462.88;;;19.84;36.55
48200;BME280;33990;44.602;10.976;2023-02-15T11:08:06;102444.00;;;19.85;36.13
48200;BME280;33990;44.602;10.976;2023-02-15T11:10:42;102438.63;;;19.85;36.19
48200;BME280;33990;44.602;10.976;2023-02-15T11:13:14;102434.09;;;19.86;36.16
48200;BME280;33990;44.602;10.976;2023-02-15T11:19:05;102431.41;;;19.86;36.32
48200;BME280;33990;44.602;10.976;2023-02-15T11:21:48;102427.88;;;19.85;36.31
48200;BME280;33990;44.602;10.976;2023-02-15T11:24:18;102417.97;;;19.86;36.28
48200;BME280;33990;44.602;10.976;2023-02-15T11:32:20;102404.31;;;19.89;36.32
48200;BME280;33990;44.602;10.976;2023-02-15T11:37:19;102402.53;;;19.89;36.91
48200;BME280;33990;44.602;10.976;2023-02-15T11:39:51;102399.72;;;19.91;36.79
48200;BME280;33990;44.602;10.976;2023-02-15T11:42:23;102396.06;;;19.92;36.72
48200;BME280;33990;44.602;10.976;2023-02-15T11:44:59;102397.78;;;19.93;36.88
48200;BME280;33990;44.602;10.976;2023-02-15T11:47:28;102395.09;;;19.93;36.72
48200;BME280;33990;44.602;10.976;2023-02-15T11:49:56;102389.72;;;19.93;36.70
48200;BME280;33990;44.602;10.976;2023-02-15T11:52:24;102391.47;;;19.94;36.98
48200;BME280;33990;44.602;10.976;2023-02-15T11:54:52;102378.97;;;19.93;36.70
48200;BME280;33990;44.602;10.976;2023-02-15T11:57:31;102387.94;;;19.93;36.96
48200;BME280;33990;44.602;10.976;2023-02-15T12:00:06;102381.59;;;19.94;37.02
48200;BME280;33990;44.602;10.976;2023-02-15T12:02:40;102366.44;;;19.93;36.86
48200;BME280;33990;44.602;10.976;2023-02-15T12:05:20;102377.19;;;19.93;37.08
48200;BME280;33990;44.602;10.976;2023-02-15T12:07:53;102376.28;;;19.93;37.21
48200;BME280;33990;44.602;10.976;2023-02-15T12:10:28;102373.53;;;19.94;37.17
48200;BME280;33990;44.602;10.976;2023-02-15T12:13:18;102359.13;;;19.95;37.82
48200;BME280;33990;44.602;10.976;2023-02-15T12:15:54;102361.81;;;19.95;37.87
48200;BME280;33990;44.602;10.976;2023-02-15T12:18:40;102358.13;;;19.96;37.88
48200;BME280;33990;44.602;10.976;2023-02-15T12:21:40;102346.53;;;19.96;38.21
48200;BME280;33990;44.602;10.976;2023-02-15T12:24:16;102342.97;;;19.95;38.23
48200;BME280;33990;44.602;10.976;2023-02-15T12:27:00;102333.19;;;19.94;38.37
48200;BME280;33990;44.602;10.976;2023-02-15T12:29:31;102339.53;;;19.93;38.54
48200;BME280;33990;44.602;10.976;2023-02-15T12:32:03;102335.97;;;19.93;38.48
48200;BME280;33990;44.602;10.976;2023-02-15T12:34:35;102338.66;;;19.93;38.63
48200;BME280;33990;44.602;10.976;2023-02-15T12:37:19;102334.25;;;19.92;38.66
48200;BME280;33990;44.602;10.976;2023-02-15T12:42:20;102326.19;;;19.92;38.37
48200;BME280;33990;44.602;10.976;2023-02-15T12:45:00;102320.94;;;19.90;38.64
48200;BME280;33990;44.602;10.976;2023-02-15T12:47:29;102309.19;;;19.91;38.61
48200;BME280;33990;44.602;10.976;2023-02-15T12:55:34;102305.66;;;19.91;38.74
48200;BME280;33990;44.602;10.976;2023-02-15T13:00:35;102294.91;;;19.91;38.68
48200;BME280;33990;44.602;10.976;2023-02-15T13:03:04;102293.06;;;19.91;38.84
48200;BME280;33990;44.602;10.976;2023-02-15T13:05:40;102294.78;;;19.92;39.02
48200;BME280;33990;44.602;10.976;2023-02-15T13:10:57;102294.78;;;19.92;38.80
48200;BME280;33990;44.602;10.976;2023-02-15T13:13:28;102292.97;;;19.93;38.87
48200;BME280;33990;44.602;10.976;2023-02-15T13:16:05;102295.47;;;19.96;39.07
48200;BME280;33990;44.602;10.976;2023-02-15T13:18:37;102288.19;;;19.98;39.14
48200;BME280;33990;44.602;10.976;2023-02-15T13:21:18;102291.72;;;19.98;39.32
48200;BME280;33990;44.602;10.976;2023-02-15T13:23:50;102288.06;;;19.99;39.16
48200;BME280;33990;44.602;10.976;2023-02-15T13:26:20;102280.84;;;20.00;39.32
48200;BME280;33990;44.602;10.976;2023-02-15T13:28:54;102278.09;;;20.02;39.30
48200;BME280;33990;44.602;10.976;2023-02-15T13:31:28;102275.41;;;20.02;39.38
48200;BME280;33990;44.602;10.976;2023-02-15T13:34:09;102280.78;;;20.02;39.33
48200;BME280;33990;44.602;10.976;2023-02-15T13:36:51;102274.50;;;20.01;39.55
48200;BME280;33990;44.602;10.976;2023-02-15T13:47:33;102268.94;;;20.04;39.46
48200;BME280;33990;44.602;10.976;2023-02-15T13:55:34;102256.78;;;19.98;39.39
48200;BME280;33990;44.602;10.976;2023-02-15T13:58:09;102260.44;;;19.97;39.36
48200;BME280;33990;44.602;10.976;2023-02-15T14:00:47;102250.72;;;19.95;39.06
48200;BME280;33990;44.602;10.976;2023-02-15T14:03:26;102256.97;;;19.95;39.14
48200;BME280;33990;44.602;10.976;2023-02-15T14:09:18;102253.53;;;19.93;39.06
48200;BME280;33990;44.602;10.976;2023-02-15T14:12:59;102241.03;;;19.92;39.04
48200;BME280;33990;44.602;10.976;2023-02-15T14:26:15;102245.66;;;19.90;38.88
48200;BME280;33990;44.602;10.976;2023-02-15T14:31:13;102233.19;;;19.89;38.50
48200;BME280;33990;44.602;10.976;2023-02-15T14:33:55;102235.00;;;19.89;38.58
48200;BME280;33990;44.602;10.976;2023-02-15T14:36:23;102239.50;;;19.88;38.58
48200;BME280;33990;44.602;10.976;2023-02-15T14:47:05;102241.34;;;19.88;38.35
48200;BME280;33990;44.602;10.976;2023-02-15T14:49:39;102245.75;;;19.89;38.35
48200;BME280;33990;44.602;10.976;2023-02-15T14:52:08;102246.63;;;19.89;38.37
48200;BME280;33990;44.602;10.976;2023-02-15T14:59:56;102233.28;;;19.88;38.25
48200;BME280;33990;44.602;10.976;2023-02-15T15:02:41;102234.13;;;19.88;38.39
48200;BME280;33990;44.602;10.976;2023-02-15T15:05:24;102230.59;;;19.88;38.34
48200;BME280;33990;44.602;10.976;2023-02-15T15:07:57;102227.91;;;19.88;38.23
48200;BME280;33990;44.602;10.976;2023-02-15T15:12:54;102230.59;;;19.88;38.25
48200;BME280;33990;44.602;10.976;2023-02-15T15:20:46;102222.66;;;19.86;38.27
48200;BME280;33990;44.602;10.976;2023-02-15T15:41:53;102209.28;;;19.85;38.14
48200;BME280;33990;44.602;10.976;2023-02-15T15:49:46;102202.97;;;19.86;38.27
48200;BME280;33990;44.602;10.976;2023-02-15T15:52:19;102199.50;;;19.84;38.12
48200;BME280;33990;44.602;10.976;2023-02-15T15:54:48;102202.19;;;19.84;38.23
48200;BME280;33990;44.602;10.976;2023-02-15T15:57:35;102207.56;;;19.84;38.14
48200;BME280;33990;44.602;10.976;2023-02-15T16:00:43;102199.50;;;19.84;38.17
48200;BME280;33990;44.602;10.976;2023-02-15T16:03:24;102200.38;;;19.84;38.20
48200;BME280;33990;44.602;10.976;2023-02-15T16:05:52;102199.50;;;19.84;38.17
48200;BME280;33990;44.602;10.976;2023-02-15T16:08:33;102207.56;;;19.84;38.18